ADDS METAR Data INFO
IDs: Format: Raw Decoded Include TAF

Data at: 1611 UTC 14 Aug 2018

KCMI 141553Z 18005KT 10SM CLR 28/18 A3004 RMK AO2 SLP167 T02780183
KCMI 141453Z 21006KT 10SM CLR 26/18 A3004 RMK AO2 SLP167 T02610178 50002
KCMI 141353Z 20004KT 10SM CLR 23/18 A3005 RMK AO2 SLP170 T02330178
KCMI 141253Z 00000KT 10SM CLR 21/18 A3004 RMK AO2 SLP168 T02110178
KCMI 141153Z 19004KT 10SM CLR 18/16 A3004 RMK AO2 SLP165 T01780156 10178 20156 53006
KCMI 141053Z 00000KT 10SM CLR 16/15 A3003 RMK AO2 SLP163 T01560150
KCMI 140953Z AUTO 00000KT 10SM CLR 16/15 A3002 RMK AO2 SLP161 T01610150
KCMI 140853Z AUTO 00000KT 10SM CLR 17/16 A3002 RMK AO2 SLP160 T01670156 58006
KCMI 140753Z AUTO 28003KT 10SM CLR 17/16 A3003 RMK AO2 SLP162 T01720161
KCMI 140653Z AUTO 00000KT 10SM CLR 17/16 A3003 RMK AO2 SLP164 T01670161
KCMI 140553Z AUTO 00000KT 10SM CLR 18/17 A3004 RMK AO2 SLP166 T01780167 10272 20172 403060156 56003
KCMI 140453Z AUTO 18003KT 10SM CLR 19/17 A3004 RMK AO2 SLP168 T01890172
KCMI 140353Z 00000KT 10SM CLR 20/18 A3004 RMK AO2 SLP167 T02000178
KCMI 140253Z 00000KT 10SM CLR 20/18 A3005 RMK AO2 SLP169 T02000183 51007
KCMI 140153Z 00000KT 10SM CLR 21/19 A3005 RMK AO2 SLP170 T02060189
KCMI 140053Z 21004KT 10SM CLR 24/19 A3004 RMK AO2 SLP167 T02390194
KCMI 132353Z 20003KT 10SM FEW060 27/19 A3003 RMK AO2 SLP163 T02720194 10306 20272 55008
KCMI 132253Z 13004KT 10SM FEW050 28/18 A3003 RMK AO2 SLP162 T02830183
KCMI 132153Z 17004KT 10SM CLR 30/16 A3003 RMK AO2 SLP165 T03000161
KCMI 132053Z 14005KT 10SM CLR 29/16 A3005 RMK AO2 SLP171 T02940161 58015
KCMI 131953Z VRB03KT 10SM CLR 29/16 A3007 RMK AO2 SLP176 T02940161
KCMI 131853Z 15005KT 10SM CLR 29/17 A3008 RMK AO2 SLP180 T02940167
KCMI 131753Z 08006KT 10SM FEW055 29/17 A3010 RMK AO2 SLP186 T02890172 10300 20178 58011
KCMI 131653Z 03003KT 10SM CLR 29/17 A3012 RMK AO2 SLP193 T02940167
KCMI 131553Z 35003KT 10SM CLR 28/18 A3013 RMK AO2 SLP197 T02830178
KCMI 131453Z 00000KT 10SM FEW055 26/21 A3013 RMK AO2 SLP198 T02610206 50005
KCMI 131353Z COR 05004KT 8SM BKN055 23/21 A3013 RMK AO2 SLP200 T02280206
KCMI 131253Z 00000KT 7SM BKN050 21/19 A3012 RMK AO2 SLP196 T02060194
KCMI 131153Z 00000KT 6SM BR SCT049 SCT065 18/17 A3012 RMK AO2 SLP193 T01780172 10200 20156 53004
KCMI 131053Z 05004KT 9SM CLR 18/17 A3010 RMK AO2 SLP188 T01780167
KCMI 130953Z AUTO 05004KT 10SM CLR 18/16 A3010 RMK AO2 SLP188 T01830161
KCMI 130853Z AUTO 00000KT 10SM CLR 18/16 A3010 RMK AO2 SLP188 T01830156 56007
KCMI 130753Z AUTO 00000KT 10SM FEW055 19/16 A3011 RMK AO2 SLP190 T01890156
KCMI 130653Z AUTO 04005KT 10SM FEW055 20/16 A3011 RMK AO2 SLP191 T02000156
KCMI 130553Z AUTO 01003KT 10SM FEW060 19/17 A3012 RMK AO2 SLP196 T01890172 10267 20183 403060161 50001
KCMI 130453Z AUTO 00000KT 10SM CLR 19/18 A3013 RMK AO2 SLP196 T01890178